Time,TemperatureF,DewpointF,PressureIn,WindDirection,WindDirectionDegrees,WindSpeedMPH,WindSpeedGustMPH,Humidity,HourlyPrecipIn,Conditions,Clouds,dailyrainin,SoftwareType,DateUTC
2013-03-21 00:08:00,18.1,15.0,30.05,West,265,5.0,9.0,89,0.00,,,0.00,weatherlink.com 1.10,2013-03-21 04:08:00,
2013-03-21 00:23:00,17.8,15.0,30.05,West,269,4.0,7.0,89,0.00,,,0.00,weatherlink.com 1.10,2013-03-21 04:23:00,
2013-03-21 00:38:00,17.8,15.0,30.04,WNW,288,3.0,6.0,88,0.00,,,0.00,weatherlink.com 1.10,2013-03-21 04:38:00,
2013-03-21 00:53:00,17.7,15.0,30.04,WNW,302,4.0,9.0,87,0.00,,,0.00,weatherlink.com 1.10,2013-03-21 04:53:00,
2013-03-21 01:09:00,17.4,14.0,30.05,WNW,285,5.0,6.0,87,0.00,,,0.00,weatherlink.com 1.10,2013-03-21 05:09:00,
2013-03-21 01:24:00,17.3,14.0,30.04,West,274,4.0,9.0,86,0.00,,,0.00,weatherlink.com 1.10,2013-03-21 05:24:00,
2013-03-21 01:39:00,17.1,14.0,30.04,WNW,283,1.0,7.0,87,0.00,,,0.00,weatherlink.com 1.10,2013-03-21 05:39:00,
2013-03-21 01:54:00,17.3,15.0,30.04,West,264,4.0,5.0,89,0.00,,,0.00,weatherlink.com 1.10,2013-03-21 05:54:00,
2013-03-21 02:09:00,17.2,15.0,30.04,West,273,3.0,6.0,89,0.00,,,0.00,weatherlink.com 1.10,2013-03-21 06:09:00,
2013-03-21 02:24:00,17.1,14.0,30.04,West,281,4.0,8.0,88,0.00,,,0.00,weatherlink.com 1.10,2013-03-21 06:24:00,
2013-03-21 02:39:00,17.0,14.0,30.03,WSW,239,2.0,4.0,88,0.00,,,0.00,weatherlink.com 1.10,2013-03-21 06:39:00,
2013-03-21 02:54:00,16.4,14.0,30.03,WNW,297,1.0,4.0,89,0.00,,,0.00,weatherlink.com 1.10,2013-03-21 06:54:00,
2013-03-21 03:09:00,15.8,13.0,30.04,West,269,1.0,3.0,89,0.00,,,0.00,weatherlink.com 1.10,2013-03-21 07:09:00,
2013-03-21 03:24:00,15.3,12.0,30.03,SW,231,1.0,2.0,88,0.00,,,0.00,weatherlink.com 1.10,2013-03-21 07:24:00,
2013-03-21 03:39:00,14.6,12.0,30.03,WSW,257,0.0,2.0,89,0.00,,,0.00,weatherlink.com 1.10,2013-03-21 07:39:00,
2013-03-21 03:54:00,14.3,12.0,30.03,West,260,2.0,3.0,89,0.00,,,0.00,weatherlink.com 1.10,2013-03-21 07:54:00,
2013-03-21 04:09:00,14.2,12.0,30.03,WSW,238,1.0,3.0,89,0.00,,,0.00,weatherlink.com 1.10,2013-03-21 08:09:00,
2013-03-21 04:24:00,13.9,11.0,30.03,West,266,1.0,2.0,88,0.00,,,0.00,weatherlink.com 1.10,2013-03-21 08:24:00,
2013-03-21 04:39:00,13.9,11.0,30.03,West,259,0.0,1.0,88,0.00,,,0.00,weatherlink.com 1.10,2013-03-21 08:39:00,
2013-03-21 04:54:00,14.1,11.0,30.02,WSW,252,1.0,3.0,87,0.00,,,0.00,weatherlink.com 1.10,2013-03-21 08:54:00,
2013-03-21 05:09:00,14.1,11.0,30.02,WSW,243,2.0,4.0,86,0.00,,,0.00,weatherlink.com 1.10,2013-03-21 09:09:00,
2013-03-21 05:24:00,14.3,11.0,30.01,SW,235,2.0,4.0,86,0.00,,,0.00,weatherlink.com 1.10,2013-03-21 09:24:00,
2013-03-21 05:39:00,14.5,11.0,30.01,West,269,4.0,7.0,86,0.00,,,0.00,weatherlink.com 1.10,2013-03-21 09:39:00,
2013-03-21 05:54:00,14.9,11.0,30.01,West,280,6.0,7.0,85,0.00,,,0.00,weatherlink.com 1.10,2013-03-21 09:54:00,
2013-03-21 06:09:00,15.3,12.0,30.00,WSW,255,3.0,6.0,85,0.00,,,0.00,weatherlink.com 1.10,2013-03-21 10:09:00,
2013-03-21 06:24:00,15.2,12.0,30.01,WSW,246,6.0,6.0,85,0.00,,,0.00,weatherlink.com 1.10,2013-03-21 10:24:00,
2013-03-21 06:40:00,15.4,12.0,30.01,SW,225,4.0,6.0,85,0.00,,,0.00,weatherlink.com 1.10,2013-03-21 10:40:00,
2013-03-21 06:55:00,15.4,11.0,30.01,WSW,238,6.0,8.0,84,0.00,,,0.00,weatherlink.com 1.10,2013-03-21 10:55:00,
2013-03-21 07:10:00,15.2,12.0,30.01,SW,232,5.0,9.0,85,0.00,,,0.00,weatherlink.com 1.10,2013-03-21 11:10:00,
2013-03-21 07:25:00,15.2,12.0,30.01,WSW,240,3.0,9.0,85,0.00,,,0.00,weatherlink.com 1.10,2013-03-21 11:25:00,
2013-03-21 07:40:00,15.2,12.0,30.01,WSW,243,4.0,7.0,85,0.00,,,0.00,weatherlink.com 1.10,2013-03-21 11:40:00,
2013-03-21 07:55:00,15.3,12.0,30.01,WSW,250,3.0,7.0,85,0.00,,,0.00,weatherlink.com 1.10,2013-03-21 11:55:00,
2013-03-21 08:10:00,15.9,12.0,30.01,WSW,255,6.0,10.0,85,0.00,,,0.00,weatherlink.com 1.10,2013-03-21 12:10:00,
2013-03-21 08:25:00,16.4,13.0,30.02,SW,219,7.0,9.0,85,0.00,,,0.00,weatherlink.com 1.10,2013-03-21 12:25:00,
2013-03-21 08:40:00,16.4,13.0,30.02,WSW,249,6.0,10.0,86,0.00,,,0.00,weatherlink.com 1.10,2013-03-21 12:40:00,
2013-03-21 08:55:00,16.9,13.0,30.02,WSW,248,7.0,12.0,86,0.00,,,0.00,weatherlink.com 1.10,2013-03-21 12:55:00,
2013-03-21 09:10:00,17.3,14.0,30.02,West,262,6.0,9.0,86,0.00,,,0.00,weatherlink.com 1.10,2013-03-21 13:10:00,
2013-03-21 09:25:00,17.6,14.0,30.02,WSW,254,6.0,13.0,87,0.00,,,0.00,weatherlink.com 1.10,2013-03-21 13:25:00,
2013-03-21 09:40:00,18.3,15.0,30.02,WSW,253,9.0,14.0,87,0.00,,,0.00,weatherlink.com 1.10,2013-03-21 13:40:00,
2013-03-21 09:55:00,19.5,16.0,30.02,West,259,10.0,14.0,85,0.00,,,0.00,weatherlink.com 1.10,2013-03-21 13:55:00,
2013-03-21 10:10:00,20.6,17.0,30.02,West,264,9.0,16.0,84,0.00,,,0.00,weatherlink.com 1.10,2013-03-21 14:10:00,
2013-03-21 10:25:00,21.8,17.0,30.02,WNW,291,8.0,15.0,81,0.00,,,0.00,weatherlink.com 1.10,2013-03-21 14:25:00,
2013-03-21 10:40:00,23.1,17.0,30.03,West,281,4.0,12.0,78,0.00,,,0.00,weatherlink.com 1.10,2013-03-21 14:40:00,
2013-03-21 10:55:00,24.1,17.0,30.03,WNW,290,6.0,14.0,74,0.00,,,0.00,weatherlink.com 1.10,2013-03-21 14:55:00,
2013-03-21 11:10:00,24.6,18.0,30.04,West,260,9.0,17.0,76,0.00,,,0.00,weatherlink.com 1.10,2013-03-21 15:10:00,
2013-03-21 11:25:00,24.3,17.0,30.04,WNW,293,8.0,13.0,74,0.00,,,0.00,weatherlink.com 1.10,2013-03-21 15:25:00,
2013-03-21 11:40:00,24.0,17.0,30.04,WNW,295,13.0,15.0,75,0.00,,,0.00,weatherlink.com 1.10,2013-03-21 15:40:00,
2013-03-21 11:55:00,24.6,18.0,30.04,NW,314,10.0,14.0,75,0.00,,,0.00,weatherlink.com 1.10,2013-03-21 15:55:00,
2013-03-21 12:10:00,25.4,19.0,30.04,WNW,285,20.0,20.0,76,0.00,,,0.00,weatherlink.com 1.10,2013-03-21 16:10:00,
2013-03-21 12:25:00,25.8,18.0,30.04,WNW,284,10.0,15.0,73,0.00,,,0.00,weatherlink.com 1.10,2013-03-21 16:25:00,
2013-03-21 12:40:00,26.3,19.0,30.05,WNW,283,6.0,15.0,74,0.00,,,0.00,weatherlink.com 1.10,2013-03-21 16:40:00,
2013-03-21 12:55:00,26.7,19.0,30.05,WSW,246,5.0,16.0,72,0.00,,,0.00,weatherlink.com 1.10,2013-03-21 16:55:00,
2013-03-21 13:10:00,26.5,16.0,30.05,West,278,8.0,17.0,66,0.00,,,0.00,weatherlink.com 1.10,2013-03-21 17:10:00,
2013-03-21 13:25:00,26.8,18.0,30.05,West,280,8.0,14.0,68,0.00,,,0.00,weatherlink.com 1.10,2013-03-21 17:25:00,
2013-03-21 13:40:00,26.9,17.0,30.05,NW,313,10.0,16.0,67,0.00,,,0.00,weatherlink.com 1.10,2013-03-21 17:40:00,
2013-03-21 13:55:00,27.0,17.0,30.05,West,279,7.0,16.0,66,0.00,,,0.00,weatherlink.com 1.10,2013-03-21 17:55:00,
2013-03-21 14:11:00,28.1,18.0,30.04,West,279,5.0,13.0,65,0.00,,,0.00,weatherlink.com 1.10,2013-03-21 18:11:00,
2013-03-21 14:26:00,28.5,17.0,30.04,WNW,299,10.0,14.0,62,0.00,,,0.00,weatherlink.com 1.10,2013-03-21 18:26:00,
2013-03-21 14:41:00,28.6,17.0,30.04,West,264,7.0,16.0,63,0.00,,,0.00,weatherlink.com 1.10,2013-03-21 18:41:00,
2013-03-21 14:56:00,29.6,17.0,30.04,WSW,256,12.0,18.0,59,0.00,,,0.00,weatherlink.com 1.10,2013-03-21 18:56:00,
2013-03-21 15:11:00,29.7,16.0,30.03,WSW,238,4.0,16.0,56,0.00,,,0.00,weatherlink.com 1.10,2013-03-21 19:11:00,
2013-03-21 16:11:00,31.1,17.0,30.02,West,281,8.0,14.0,55,0.00,,,0.00,weatherlink.com 1.10,2013-03-21 20:11:00,
2013-03-21 16:26:00,31.0,17.0,30.02,West,281,8.0,17.0,57,0.00,,,0.00,weatherlink.com 1.10,2013-03-21 20:26:00,
2013-03-21 16:41:00,31.2,17.0,30.02,WNW,285,7.0,12.0,55,0.00,,,0.00,weatherlink.com 1.10,2013-03-21 20:41:00,
2013-03-21 16:56:00,31.0,16.0,30.02,WNW,302,11.0,14.0,54,0.00,,,0.00,weatherlink.com 1.10,2013-03-21 20:56:00,
2013-03-21 17:26:00,31.0,16.0,30.02,WNW,302,10.0,14.0,55,0.00,,,0.00,weatherlink.com 1.10,2013-03-21 21:26:00,
2013-03-21 17:56:00,31.2,18.0,30.02,NW,309,8.0,15.0,59,0.00,,,0.00,weatherlink.com 1.10,2013-03-21 21:56:00,
2013-03-21 18:11:00,30.8,18.0,30.02,West,262,10.0,17.0,59,0.00,,,0.00,weatherlink.com 1.10,2013-03-21 22:11:00,
2013-03-21 18:26:00,30.5,17.0,30.02,WNW,295,4.0,17.0,58,0.00,,,0.00,weatherlink.com 1.10,2013-03-21 22:26:00,
2013-03-21 18:41:00,30.6,18.0,30.03,WNW,302,7.0,16.0,59,0.00,,,0.00,weatherlink.com 1.10,2013-03-21 22:41:00,
2013-03-21 18:56:00,30.2,17.0,30.03,West,279,10.0,15.0,59,0.00,,,0.00,weatherlink.com 1.10,2013-03-21 22:56:00,
2013-03-21 19:11:00,29.9,17.0,30.03,NW,323,4.0,10.0,60,0.00,,,0.00,weatherlink.com 1.10,2013-03-21 23:11:00,
2013-03-21 19:41:00,29.1,17.0,30.03,NW,307,4.0,12.0,62,0.00,,,0.00,weatherlink.com 1.10,2013-03-21 23:41:00,
2013-03-21 19:56:00,28.2,16.0,30.03,West,263,5.0,11.0,61,0.00,,,0.00,weatherlink.com 1.10,2013-03-21 23:56:00,
2013-03-21 20:11:00,27.7,16.0,30.03,West,269,6.0,9.0,63,0.00,,,0.00,weatherlink.com 1.10,2013-03-22 00:11:00,
2013-03-21 20:26:00,27.4,17.0,30.04,WNW,283,2.0,5.0,65,0.00,,,0.00,weatherlink.com 1.10,2013-03-22 00:26:00,
2013-03-21 20:41:00,27.0,17.0,30.04,West,273,4.0,6.0,65,0.00,,,0.00,weatherlink.com 1.10,2013-03-22 00:41:00,
2013-03-21 21:11:00,26.4,16.0,30.05,WNW,301,2.0,4.0,66,0.00,,,0.00,weatherlink.com 1.10,2013-03-22 01:11:00,
2013-03-21 21:26:00,26.3,16.0,30.05,NW,315,2.0,4.0,66,0.00,,,0.00,weatherlink.com 1.10,2013-03-22 01:26:00,
2013-03-21 21:41:00,26.1,16.0,30.05,NW,312,0.0,3.0,67,0.00,,,0.00,weatherlink.com 1.10,2013-03-22 01:41:00,
2013-03-21 21:56:00,25.8,17.0,30.05,WNW,290,1.0,2.0,69,0.00,,,0.00,weatherlink.com 1.10,2013-03-22 01:56:00,
2013-03-21 22:11:00,25.0,17.0,30.06,West,267,0.0,1.0,72,0.00,,,0.00,weatherlink.com 1.10,2013-03-22 02:11:00,
2013-03-21 22:26:00,24.8,18.0,30.06,West,280,0.0,2.0,74,0.00,,,0.00,weatherlink.com 1.10,2013-03-22 02:26:00,
2013-03-21 22:41:00,24.3,17.0,30.06,WNW,303,0.0,2.0,74,0.00,,,0.00,weatherlink.com 1.10,2013-03-22 02:41:00,
2013-03-21 22:56:00,24.5,17.0,30.06,WNW,294,0.0,2.0,74,0.00,,,0.00,weatherlink.com 1.10,2013-03-22 02:56:00,
2013-03-21 23:11:00,24.2,17.0,30.06,West,264,1.0,3.0,74,0.00,,,0.00,weatherlink.com 1.10,2013-03-22 03:11:00,
2013-03-21 23:26:00,24.0,17.0,30.07,West,269,1.0,2.0,74,0.00,,,0.00,weatherlink.com 1.10,2013-03-22 03:26:00,
2013-03-21 23:41:00,24.0,17.0,30.07,WNW,295,1.0,2.0,75,0.00,,,0.00,weatherlink.com 1.10,2013-03-22 03:41:00,
2013-03-21 23:56:00,23.7,17.0,30.07,WNW,291,1.0,2.0,76,0.00,,,0.00,weatherlink.com 1.10,2013-03-22 03:56:00,